地図

経路データ

SID SEASON NUMBER BASIN SUBBASIN NAME ISO_TIME NATURE LAT LON WMO_WIND WMO_PRES WMO_AGENCY TRACK_TYPE DIST2LAND LANDFALL IFLAG USA_AGENCY USA_ATCF_ID USA_LAT USA_LON USA_RECORD USA_STATUS USA_WIND USA_PRES USA_SSHS USA_R34_NE USA_R34_SE USA_R34_SW USA_R34_NW USA_R50_NE USA_R50_SE USA_R50_SW USA_R50_NW USA_R64_NE USA_R64_SE USA_R64_SW USA_R64_NW USA_POCI USA_ROCI USA_RMW USA_EYE TOKYO_LAT TOKYO_LON TOKYO_GRADE TOKYO_WIND TOKYO_PRES TOKYO_R50_DIR TOKYO_R50_LONG TOKYO_R50_SHORT TOKYO_R30_DIR TOKYO_R30_LONG TOKYO_R30_SHORT TOKYO_LAND CMA_LAT CMA_LON CMA_CAT CMA_WIND CMA_PRES HKO_LAT HKO_LON HKO_CAT HKO_WIND HKO_PRES NEWDELHI_LAT NEWDELHI_LON NEWDELHI_GRADE NEWDELHI_WIND NEWDELHI_PRES NEWDELHI_CI NEWDELHI_DP NEWDELHI_POCI REUNION_LAT REUNION_LON REUNION_TYPE REUNION_WIND REUNION_PRES REUNION_TNUM REUNION_CI REUNION_RMW REUNION_R34_NE REUNION_R34_SE REUNION_R34_SW REUNION_R34_NW REUNION_R50_NE REUNION_R50_SE REUNION_R50_SW REUNION_R50_NW REUNION_R64_NE REUNION_R64_SE REUNION_R64_SW REUNION_R64_NW BOM_LAT BOM_LON BOM_TYPE BOM_WIND BOM_PRES BOM_TNUM BOM_CI BOM_RMW BOM_R34_NE BOM_R34_SE BOM_R34_SW BOM_R34_NW BOM_R50_NE BOM_R50_SE BOM_R50_SW BOM_R50_NW BOM_R64_NE BOM_R64_SE BOM_R64_SW BOM_R64_NW BOM_ROCI BOM_POCI BOM_EYE BOM_POS_METHOD BOM_PRES_METHOD NADI_LAT NADI_LON NADI_CAT NADI_WIND NADI_PRES WELLINGTON_LAT WELLINGTON_LON WELLINGTON_WIND WELLINGTON_PRES DS824_LAT DS824_LON DS824_STAGE DS824_WIND DS824_PRES TD9636_LAT TD9636_LON TD9636_STAGE TD9636_WIND TD9636_PRES TD9635_LAT TD9635_LON TD9635_WIND TD9635_PRES TD9635_ROCI NEUMANN_LAT NEUMANN_LON NEUMANN_CLASS NEUMANN_WIND NEUMANN_PRES MLC_LAT MLC_LON MLC_CLASS MLC_WIND MLC_PRES USA_GUST BOM_GUST BOM_GUST_PER REUNION_GUST REUNION_GUST_PER USA_SEAHGT USA_SEARAD_NE USA_SEARAD_SE USA_SEARAD_SW USA_SEARAD_NW STORM_SPEED STORM_DIR
1884314S07094 1885 45 SI WA NOT_NAMED 1884-11-09 00:00:00 TS -7.10000 93.5000 main 851 851 _________O____ -1 -7.10000 93.5000 TC 5 250
1884314S07094 1885 45 SI WA NOT_NAMED 1884-11-09 03:00:00 TS -7.19003 93.2500 main 875 875 _________P____ -1 -7.19003 93.2500 TC 5 248
1884314S07094 1885 45 SI WA NOT_NAMED 1884-11-09 06:00:00 TS -7.30000 93.0000 main 906 906 _________O____ -1 -7.30000 93.0000 TC 6 243
1884314S07094 1885 45 SI WA NOT_NAMED 1884-11-09 09:00:00 TS -7.44249 92.7500 main 930 930 _________P____ -1 -7.44249 92.7500 TC 6 239
1884314S07094 1885 45 SI WA NOT_NAMED 1884-11-09 12:00:00 TS -7.60000 92.5000 main 969 969 _________O____ -1 -7.60000 92.5000 TC 6 239
1884314S07094 1885 45 SI WA NOT_NAMED 1884-11-09 15:00:00 TS -7.74250 92.2425 main 1001 1001 _________P____ -1 -7.74250 92.2425 TC 6 239
1884314S07094 1885 45 SI WA NOT_NAMED 1884-11-09 18:00:00 TS -7.90000 92.0000 main 1033 1033 _________O____ -1 -7.90000 92.0000 TC 5 230
1884314S07094 1885 45 SI WA NOT_NAMED 1884-11-09 21:00:00 TS -8.09242 91.8224 main 1064 1064 _________P____ -1 -8.09242 91.8224 TC 6 225
1884314S07094 1885 45 SI WA NOT_NAMED 1884-11-10 00:00:00 TS -8.30000 91.6000 main 1096 1096 _________O____ -1 -8.30000 91.6000 TC 7 236
1884314S07094 1885 45 SI WA NOT_NAMED 1884-11-10 03:00:00 TS -8.49256 91.2225 main 1143 1143 _________P____ -1 -8.49256 91.2225 TC 9 243
1884314S07094 1885 45 SI WA NOT_NAMED 1884-11-10 06:00:00 TS -8.70000 90.8000 main 1191 1191 _________O____ -1 -8.70000 90.8000 TC 9 241
1884314S07094 1885 45 SI WA NOT_NAMED 1884-11-10 09:00:00 TS -8.94251 90.4125 main 1239 1239 _________P____ -1 -8.94251 90.4125 TC 9 234
1884314S07094 1885 45 SI WA NOT_NAMED 1884-11-10 12:00:00 TS -9.20000 90.1000 main 1286 1286 _________O____ -1 -9.20000 90.1000 TC 7 224
1884314S07094 1885 45 SI MM NOT_NAMED 1884-11-10 15:00:00 TS -9.44994 89.9199 main 1317 1317 _________P____ -1 -9.44994 89.9199 TC 6 211
1884314S07094 1885 45 SI MM NOT_NAMED 1884-11-10 18:00:00 TS -9.70000 89.8000 main 1348 1348 _________O____ -1 -9.70000 89.8000 TC 6 207
1884314S07094 1885 45 SI MM NOT_NAMED 1884-11-10 21:00:00 TS -9.94997 89.6649 main 1371 1371 _________P____ -1 -9.94997 89.6649 TC 6 211
1884314S07094 1885 45 SI MM NOT_NAMED 1884-11-11 00:00:00 TS -10.2000 89.5000 main 1409 1409 _________O____ -1 -10.2000 89.5000 TC 6 218
1884314S07094 1885 45 SI MM NOT_NAMED 1884-11-11 03:00:00 TS -10.4500 89.2650 main 1448 1448 _________P____ -1 -10.4500 89.2650 TC 7 225
1884314S07094 1885 45 SI MM NOT_NAMED 1884-11-11 06:00:00 TS -10.7000 89.0000 main 1488 1488 _________O____ -1 -10.7000 89.0000 TC 7 225
1884314S07094 1885 45 SI MM NOT_NAMED 1884-11-11 09:00:00 TS -10.9575 88.7425 main 1534 1534 _________P____ -1 -10.9575 88.7425 TC 7 225
1884314S07094 1885 45 SI MM NOT_NAMED 1884-11-11 12:00:00 TS -11.2000 88.5000 main 1566 1566 _________O____ -1 -11.2000 88.5000 TC 6 225
1884314S07094 1885 45 SI MM NOT_NAMED 1884-11-11 15:00:00 TS -11.4000 88.2924 main 1597 1597 _________P____ -1 -11.4000 88.2924 TC 6 224
1884314S07094 1885 45 SI MM NOT_NAMED 1884-11-11 18:00:00 TS -11.6000 88.1000 main 1628 1628 _________O____ -1 -11.6000 88.1000 TC 6 221
1884314S07094 1885 45 SI MM NOT_NAMED 1884-11-11 21:00:00 TS -11.8500 87.8925 main 1659 1667 _________P____ -1 -11.8500 87.8925 TC 6 218
1884314S07094 1885 45 SI MM NOT_NAMED 1884-11-12 00:00:00 TS -12.1000 87.7000 main 1698 1698 _________O____ -1 -12.1000 87.7000 TC 6 218
1884314S07094 1885 45 SI MM NOT_NAMED 1884-11-12 03:00:00 TS -12.3000 87.5350 main 1729 1729 _________P____ -1 -12.3000 87.5350 TC 5 216
1884314S07094 1885 45 SI MM NOT_NAMED 1884-11-12 06:00:00 TS -12.5000 87.4000 main 1752 1752 _________O____ -1 -12.5000 87.4000 TC 5 207
1884314S07094 1885 45 SI MM NOT_NAMED 1884-11-12 09:00:00 TS -12.7425 87.3074 main 1775 1775 _________P____ -1 -12.7425 87.3074 TC 5 201
1884314S07094 1885 45 SI MM NOT_NAMED 1884-11-12 12:00:00 TS -13.0000 87.2000 main 1806 1806 _________O____ -1 -13.0000 87.2000 TC 6 210
1884314S07094 1885 45 SI MM NOT_NAMED 1884-11-12 15:00:00 TS -13.2425 87.0075 main 1837 1837 _________P____ -1 -13.2425 87.0075 TC 6 218
1884314S07094 1885 45 SI MM NOT_NAMED 1884-11-12 18:00:00 TS -13.5000 86.8000 main 1876 1876 _________O____ -1 -13.5000 86.8000 TC 7 213
1884314S07094 1885 45 SI MM NOT_NAMED 1884-11-12 21:00:00 TS -13.8150 86.6275 main 1915 1915 _________P____ -1 -13.8150 86.6275 TC 7 206
1884314S07094 1885 45 SI MM NOT_NAMED 1884-11-13 00:00:00 TS -14.1000 86.5000 main 1946 1946 _________O____ -1 -14.1000 86.5000 TC 5 202
1884314S07094 1885 45 SI MM NOT_NAMED 1884-11-13 03:00:00 TS -14.2725 86.4349 main 1970 1970 _________P____ -1 -14.2725 86.4349 TC 3 197
1884314S07094 1885 45 SI MM NOT_NAMED 1884-11-13 06:00:00 TS -14.4000 86.4000 main 1978 1978 _________O____ -1 -14.4000 86.4000 TC 3 196
1884314S07094 1885 45 SI MM NOT_NAMED 1884-11-13 09:00:00 TS -14.5500 86.3500 main 1986 1993 _________P____ -1 -14.5500 86.3500 TC 3 197
1884314S07094 1885 45 SI MM NOT_NAMED 1884-11-13 12:00:00 TS -14.7000 86.3000 main 2009 2009 _________O____ -1 -14.7000 86.3000 TC 3 196
1884314S07094 1885 45 SI MM NOT_NAMED 1884-11-13 15:00:00 TS -14.8500 86.2575 main 2017 2017 _________P____ -1 -14.8500 86.2575 TC 3 197
1884314S07094 1885 45 SI MM NOT_NAMED 1884-11-13 18:00:00 TS -15.0000 86.2000 main 2040 2040 _________O____ -1 -15.0000 86.2000 TC 3 206
1884314S07094 1885 45 SI MM NOT_NAMED 1884-11-13 21:00:00 TS -15.1500 86.1100 main 2064 2064 _________P____ -1 -15.1500 86.1100 TC 4 213
1884314S07094 1885 45 SI MM NOT_NAMED 1884-11-14 00:00:00 TS -15.3000 86.0000 main 2080 _________O____ -1 -15.3000 86.0000 TC 4 214

IBTrACS Databaseについて

本データベースは、米国NOAAが公開する1842年以降の世界の熱帯低気圧のベストトラックデータアーカイブInternational Best Track Archive for Climate Stewardship (IBTrACS)を、ウェブで閲覧しやすい形式に変換したものです。

最終更新日:2021-12-03